Time;durP1;ratioP1;P1;durP2;ratioP2;P2;SDS_P1;SDS_P2;PMS_P1;PMS_P2;Temp;Humidity;BMP_temperature;BMP_pressure;BME280_temperature;BME280_humidity;BME280_pressure;Samples;Min_cycle;Max_cycle;Signal;HPM_P1;HPM_P2
2022/03/30 00:02:15;;;;;;;12.27;3.72;;;;;;;2.80;94.21;99969.28;5269640;28;20034;-76
2022/03/30 00:04:45;;;;;;;6.18;3.05;;;;;;;2.70;94.76;99969.47;5286096;28;20115;-75
2022/03/30 00:07:15;;;;;;;13.30;3.95;;;;;;;2.77;94.85;99974.50;5287881;28;20380;-77
2022/03/30 00:09:46;;;;;;;9.93;3.25;;;;;;;2.61;95.39;99962.69;5287275;28;20043;-76
2022/03/30 00:12:16;;;;;;;12.50;3.95;;;;;;;2.58;97.02;99957.59;5258193;28;20115;-76
2022/03/30 00:14:47;;;;;;;8.23;3.40;;;;;;;2.63;97.22;99967.81;5268673;28;20024;-75
2022/03/30 00:17:18;;;;;;;9.85;3.78;;;;;;;2.63;97.30;99960.94;5286189;28;20043;-76
2022/03/30 00:19:48;;;;;;;11.20;3.72;;;;;;;2.35;98.10;99953.59;5288399;28;20275;-77
2022/03/30 00:22:18;;;;;;;16.48;3.97;;;;;;;1.98;100.00;99954.91;5286984;28;20028;-77
2022/03/30 00:24:49;;;;;;;10.10;3.63;;;;;;;1.82;100.00;99956.78;5272291;28;20315;-77
2022/03/30 00:27:19;;;;;;;12.38;4.50;;;;;;;1.86;100.00;99961.03;5284957;28;20045;-77
2022/03/30 00:29:50;;;;;;;10.13;3.83;;;;;;;1.87;100.00;99955.03;5288029;28;20031;-78
2022/03/30 00:32:20;;;;;;;14.57;4.10;;;;;;;2.12;98.20;99963.31;5286908;28;20043;-76
2022/03/30 00:34:50;;;;;;;12.43;4.22;;;;;;;2.12;98.78;99960.75;5280451;28;20032;-78
2022/03/30 00:37:20;;;;;;;12.10;4.07;;;;;;;2.29;97.17;99948.50;5276231;28;20031;-78
2022/03/30 00:39:53;;;;;;;9.98;3.75;;;;;;;2.04;97.15;99950.56;5287195;28;20024;-76
2022/03/30 00:42:24;;;;;;;10.07;3.70;;;;;;;2.15;97.41;99956.41;5292069;28;20020;-76
2022/03/30 00:44:54;;;;;;;12.90;4.03;;;;;;;1.92;99.18;99944.66;5286542;28;20427;-78
2022/03/30 00:47:27;;;;;;;12.48;4.18;;;;;;;2.38;96.75;99944.13;5291153;28;20112;-77
2022/03/30 00:49:57;;;;;;;10.45;3.78;;;;;;;2.57;96.71;99945.56;5292228;28;20024;-78
2022/03/30 00:52:27;;;;;;;11.82;4.55;;;;;;;2.21;99.56;99946.03;5271820;28;20035;-77
2022/03/30 00:54:58;;;;;;;12.88;4.90;;;;;;;2.51;98.74;99939.63;5291292;28;20050;-74
2022/03/30 00:57:29;;;;;;;10.30;3.70;;;;;;;2.32;96.65;99940.75;5283619;28;20032;-75
2022/03/30 01:00:00;;;;;;;12.20;4.05;;;;;;;2.11;99.25;99941.00;5288324;28;20075;-75
2022/03/30 01:02:31;;;;;;;11.85;4.20;;;;;;;2.04;100.00;99942.81;5289606;28;20051;-76
2022/03/30 01:05:01;;;;;;;18.02;4.88;;;;;;;2.06;100.00;99940.22;5291307;28;20095;-79
2022/03/30 01:07:32;;;;;;;11.40;4.50;;;;;;;2.12;95.68;99942.69;5270876;28;20207;-77
2022/03/30 01:10:07;;;;;;;7.70;3.85;;;;;;;1.90;93.37;99938.69;5289972;28;20127;-76
2022/03/30 01:12:40;;;;;;;12.85;4.18;;;;;;;1.45;94.30;99939.19;5289582;28;20026;-76
2022/03/30 01:15:13;;;;;;;7.13;3.25;;;;;;;1.28;95.15;99940.19;5266552;28;20032;-78
2022/03/30 01:17:44;;;;;;;9.75;3.65;;;;;;;1.22;98.56;99935.94;5292980;28;20087;-76
2022/03/30 01:20:22;;;;;;;11.30;3.70;;;;;;;1.02;100.00;99942.09;5271978;28;20054;-77
2022/03/30 01:22:52;;;;;;;10.30;3.60;;;;;;;1.19;100.00;99925.66;5290389;28;20583;-76
2022/03/30 01:25:23;;;;;;;13.50;3.80;;;;;;;1.11;100.00;99932.63;5290111;28;20028;-78
2022/03/30 01:27:53;;;;;;;10.82;3.60;;;;;;;1.32;100.00;99927.28;5284454;28;20020;-79
2022/03/30 01:33:12;;;;;;;9.52;3.83;;;;;;;1.42;99.60;99923.72;5286686;28;20084;-76
2022/03/30 01:35:43;;;;;;;13.32;3.78;;;;;;;1.37;100.00;99925.50;5292918;28;20519;-76
2022/03/30 01:38:13;;;;;;;12.90;3.65;;;;;;;1.35;100.00;99913.50;5286440;28;20074;-76
2022/03/30 01:40:43;;;;;;;14.85;4.05;;;;;;;1.47;100.00;99924.56;5289068;28;20020;-75
2022/03/30 01:43:14;;;;;;;15.60;4.13;;;;;;;1.28;100.00;99920.47;5292155;28;20110;-77
2022/03/30 01:45:44;;;;;;;10.45;3.90;;;;;;;1.22;100.00;99920.50;5290110;28;20032;-76
2022/03/30 01:48:14;;;;;;;13.45;3.90;;;;;;;1.38;100.00;99905.78;5290877;28;20031;-75
2022/03/30 01:50:45;;;;;;;10.77;3.50;;;;;;;1.39;100.00;99908.31;5289300;28;20027;-76
2022/03/30 01:53:15;;;;;;;10.70;3.65;;;;;;;1.68;100.00;99906.31;5291112;28;20035;-78
2022/03/30 01:55:45;;;;;;;15.23;4.15;;;;;;;1.72;97.40;99907.97;5272766;28;20031;-77
2022/03/30 01:58:16;;;;;;;13.57;4.45;;;;;;;1.48;98.54;99907.38;5262836;28;20031;-75
2022/03/30 02:00:46;;;;;;;14.85;4.95;;;;;;;1.26;100.00;99914.44;5285609;28;20031;-78
2022/03/30 02:03:17;;;;;;;11.82;4.28;;;;;;;1.18;100.00;99905.97;5288125;28;20062;-77
2022/03/30 02:05:47;;;;;;;14.65;4.63;;;;;;;1.15;100.00;99908.56;5288965;28;20035;-76
2022/03/30 02:08:18;;;;;;;11.63;4.20;;;;;;;1.32;100.00;99898.09;5289673;28;20032;-75
2022/03/30 02:10:48;;;;;;;12.35;4.90;;;;;;;1.53;99.08;99903.91;5290760;28;20012;-75
2022/03/30 02:13:18;;;;;;;13.18;4.30;;;;;;;1.72;97.10;99902.00;5288959;28;20036;-77
2022/03/30 02:15:49;;;;;;;10.23;4.10;;;;;;;1.42;94.94;99886.88;5289405;28;20023;-77
2022/03/30 02:18:19;;;;;;;11.25;4.05;;;;;;;1.33;96.56;99897.22;5289042;28;20275;-76
2022/03/30 02:20:50;;;;;;;10.98;4.53;;;;;;;1.39;97.87;99887.75;5289659;28;20024;-75
2022/03/30 02:23:20;;;;;;;12.90;4.80;;;;;;;1.36;97.53;99882.63;5288890;28;20036;-75
2022/03/30 02:25:51;;;;;;;13.70;4.93;;;;;;;1.17;98.90;99891.38;5289142;28;20509;-77
2022/03/30 02:28:21;;;;;;;13.73;4.63;;;;;;;0.94;100.00;99883.03;5278860;28;20028;-78
2022/03/30 02:30:51;;;;;;;17.63;4.82;;;;;;;1.00;100.00;99875.25;5277811;28;20375;-78
2022/03/30 02:33:23;;;;;;;15.52;4.82;;;;;;;0.92;100.00;99877.03;5265957;28;20055;-78
2022/03/30 02:35:53;;;;;;;11.70;5.05;;;;;;;1.03;100.00;99872.66;5269029;28;20068;-76
2022/03/30 02:38:23;;;;;;;12.80;4.90;;;;;;;1.19;100.00;99869.06;5283755;28;20591;-77
2022/03/30 02:40:54;;;;;;;16.55;4.78;;;;;;;0.95;100.00;99873.59;5286910;28;20051;-78
2022/03/30 02:43:24;;;;;;;13.52;4.78;;;;;;;0.86;100.00;99861.66;5288883;28;20109;-75
2022/03/30 02:45:55;;;;;;;15.25;4.85;;;;;;;0.87;100.00;99862.53;5289970;28;20087;-75
2022/03/30 02:48:28;;;;;;;10.65;4.65;;;;;;;1.30;100.00;99867.25;5268522;28;20041;-74
2022/03/30 02:51:05;;;;;;;14.80;4.50;;;;;;;1.21;97.30;99867.34;5288356;28;20386;-74
2022/03/30 02:53:36;;;;;;;14.90;4.68;;;;;;;1.23;96.59;99865.59;5266868;28;20016;-77
2022/03/30 02:56:06;;;;;;;10.85;4.38;;;;;;;0.94;98.72;99871.88;5283542;28;20154;-77
2022/03/30 02:58:36;;;;;;;12.05;4.38;;;;;;;1.09;99.47;99870.00;5270493;28;20027;-78
2022/03/30 03:01:07;;;;;;;13.32;4.35;;;;;;;0.94;99.20;99866.75;5274759;28;20031;-76
2022/03/30 03:03:37;;;;;;;10.60;4.43;;;;;;;0.79;100.00;99862.59;5284848;28;20019;-76
2022/03/30 03:06:07;;;;;;;9.43;3.88;;;;;;;0.79;100.00;99860.00;5265816;28;20516;-75
2022/03/30 03:08:38;;;;;;;13.02;4.15;;;;;;;0.89;99.75;99856.47;5281368;28;20032;-76
2022/03/30 03:11:08;;;;;;;15.55;4.47;;;;;;;0.93;100.00;99859.88;5268905;28;20027;-77
2022/03/30 03:13:39;;;;;;;12.73;3.92;;;;;;;1.01;99.01;99863.22;5265020;28;20031;-76
2022/03/30 03:16:11;;;;;;;9.48;4.05;;;;;;;0.65;100.00;99859.25;5286517;28;20031;-76
2022/03/30 03:18:42;;;;;;;11.82;4.03;;;;;;;0.50;100.00;99859.38;5282387;28;20020;-76
2022/03/30 03:21:12;;;;;;;11.38;3.90;;;;;;;0.56;100.00;99845.63;5285411;28;20036;-76
2022/03/30 03:23:42;;;;;;;13.65;4.22;;;;;;;0.74;100.00;99842.91;5281866;28;20104;-75
2022/03/30 03:26:13;;;;;;;11.30;3.58;;;;;;;0.66;100.00;99835.25;5280544;28;20039;-77
2022/03/30 03:28:43;;;;;;;9.43;3.20;;;;;;;0.69;100.00;99829.25;5283981;28;20019;-78
2022/03/30 03:31:13;;;;;;;10.38;3.40;;;;;;;0.80;100.00;99827.44;5272323;28;20111;-78
2022/03/30 03:33:44;;;;;;;8.65;3.25;;;;;;;0.69;99.29;99830.09;5281620;28;20445;-76
2022/03/30 03:36:14;;;;;;;12.27;4.68;;;;;;;0.68;98.89;99833.53;5280980;28;20492;-74
2022/03/30 03:38:44;;;;;;;14.18;4.05;;;;;;;0.65;98.81;99825.84;5280088;28;20059;-74
2022/03/30 03:41:15;;;;;;;14.95;4.05;;;;;;;0.24;99.47;99827.84;5284020;28;20031;-76
2022/03/30 03:43:45;;;;;;;9.43;4.13;;;;;;;0.24;98.58;99829.59;5256085;28;20080;-78
2022/03/30 03:46:15;;;;;;;7.55;3.20;;;;;;;0.32;96.84;99818.41;5274638;28;20631;-77
2022/03/30 03:48:46;;;;;;;7.25;3.42;;;;;;;0.27;98.19;99816.72;5284215;28;20028;-78
2022/03/30 03:51:16;;;;;;;9.82;3.70;;;;;;;0.38;96.12;99813.19;5284803;28;20019;-77
2022/03/30 03:53:46;;;;;;;13.57;3.85;;;;;;;0.18;99.24;99817.63;5280040;28;20602;-78
2022/03/30 03:56:17;;;;;;;12.20;4.32;;;;;;;0.10;99.82;99818.53;5276537;28;20026;-76
2022/03/30 03:58:51;;;;;;;11.35;4.07;;;;;;;-0.07;100.00;99816.94;5278878;28;20032;-75
2022/03/30 04:01:21;;;;;;;9.80;3.95;;;;;;;0.27;100.00;99798.72;5269509;28;20028;-74
2022/03/30 04:03:51;;;;;;;15.98;4.70;;;;;;;0.12;99.29;99799.69;5260987;28;20058;-76
2022/03/30 04:06:22;;;;;;;13.77;4.40;;;;;;;0.16;100.00;99791.09;5276312;28;20143;-76
2022/03/30 04:08:54;;;;;;;13.00;4.10;;;;;;;0.43;97.24;99801.19;5255572;28;20020;-78
2022/03/30 04:11:25;;;;;;;10.32;3.83;;;;;;;0.09;97.49;99798.84;5272876;28;20029;-76
2022/03/30 04:13:55;;;;;;;9.82;3.60;;;;;;;-0.08;100.00;99795.53;5271430;28;20493;-75
2022/03/30 04:16:26;;;;;;;10.88;3.80;;;;;;;-0.13;100.00;99792.16;5276167;28;20081;-75
2022/03/30 04:18:56;;;;;;;13.52;4.15;;;;;;;-0.07;100.00;99791.28;5273264;28;20024;-77
2022/03/30 04:21:27;;;;;;;10.43;3.80;;;;;;;0.01;100.00;99788.63;5276989;28;20884;-77
2022/03/30 04:23:57;;;;;;;12.02;4.03;;;;;;;-0.04;100.00;99791.25;5276699;28;20512;-77
2022/03/30 04:26:27;;;;;;;11.27;3.83;;;;;;;0.10;100.00;99785.16;5277958;28;20028;-76
2022/03/30 04:28:58;;;;;;;11.63;3.95;;;;;;;0.14;100.00;99782.56;5270886;28;20033;-76
2022/03/30 04:31:28;;;;;;;9.70;3.72;;;;;;;0.07;100.00;99786.00;5271431;28;20024;-75
2022/03/30 04:33:58;;;;;;;12.38;3.50;;;;;;;0.24;100.00;99786.75;5279905;28;20035;-76
2022/03/30 04:36:29;;;;;;;12.75;4.32;;;;;;;0.34;100.00;99778.13;5282982;28;20072;-77
2022/03/30 04:39:00;;;;;;;12.27;4.30;;;;;;;0.54;98.50;99777.97;5274187;28;20028;-74
2022/03/30 04:41:30;;;;;;;12.05;3.75;;;;;;;0.57;97.22;99771.06;5276442;28;20035;-74
2022/03/30 04:44:01;;;;;;;9.55;3.72;;;;;;;0.51;98.58;99772.84;5282583;28;20023;-74
2022/03/30 04:46:31;;;;;;;8.80;3.58;;;;;;;0.41;100.00;99772.06;5281212;28;20020;-76
2022/03/30 04:49:01;;;;;;;12.52;3.70;;;;;;;0.51;99.49;99767.69;5265412;28;20027;-77
2022/03/30 04:51:32;;;;;;;15.25;3.85;;;;;;;0.36;96.54;99771.25;5278866;28;20039;-77
2022/03/30 04:54:03;;;;;;;8.82;3.13;;;;;;;0.25;99.46;99765.34;5282899;28;20081;-77
2022/03/30 04:56:33;;;;;;;10.20;3.38;;;;;;;0.22;99.22;99765.38;5297999;22;20078;-75
2022/03/30 04:59:03;;;;;;;11.73;3.45;;;;;;;0.11;100.00;99769.75;5270187;28;20124;-76
2022/03/30 05:01:34;;;;;;;10.55;3.17;;;;;;;0.35;100.00;99766.16;5269834;28;20031;-76
2022/03/30 05:04:07;;;;;;;11.98;3.60;;;;;;;0.55;99.75;99771.97;5275080;28;20111;-76
2022/03/30 05:06:37;;;;;;;11.15;3.55;;;;;;;0.61;98.82;99765.06;5271169;28;20028;-79
2022/03/30 05:09:07;;;;;;;10.00;2.88;;;;;;;0.57;99.27;99772.81;5264724;28;20511;-76
2022/03/30 05:11:39;;;;;;;10.93;3.00;;;;;;;0.27;100.00;99770.47;5273422;28;20031;-76
2022/03/30 05:14:09;;;;;;;8.18;2.95;;;;;;;0.41;100.00;99764.34;5276159;28;20033;-76
2022/03/30 05:16:40;;;;;;;13.48;3.60;;;;;;;0.71;99.53;99765.81;5272934;28;20016;-76
2022/03/30 05:19:10;;;;;;;11.25;3.05;;;;;;;0.79;99.33;99770.03;5278639;28;20055;-76
2022/03/30 05:21:40;;;;;;;11.15;3.40;;;;;;;1.01;98.55;99765.50;5270937;28;20032;-76
2022/03/30 05:24:11;;;;;;;9.07;3.50;;;;;;;0.68;99.77;99764.13;5276223;28;20038;-77
2022/03/30 05:26:41;;;;;;;11.43;3.40;;;;;;;0.59;100.00;99769.34;5274051;28;20039;-76
2022/03/30 05:29:11;;;;;;;11.98;3.45;;;;;;;0.78;100.00;99764.88;5273601;28;20499;-77
2022/03/30 05:31:42;;;;;;;11.52;3.70;;;;;;;0.81;100.00;99765.72;5275886;28;20027;-77
2022/03/30 05:34:12;;;;;;;9.43;3.72;;;;;;;0.64;100.00;99756.44;5273664;28;20047;-77
2022/03/30 05:36:42;;;;;;;11.18;3.65;;;;;;;0.71;100.00;99758.13;5264682;28;20055;-78
2022/03/30 05:39:13;;;;;;;12.15;3.97;;;;;;;0.85;100.00;99759.66;5271522;28;20032;-78
2022/03/30 05:41:43;;;;;;;13.57;4.25;;;;;;;1.06;100.00;99758.59;5278009;28;20027;-78
2022/03/30 05:44:13;;;;;;;9.68;3.60;;;;;;;1.25;100.00;99758.38;5278024;28;20055;-77
2022/03/30 05:46:44;;;;;;;12.35;3.90;;;;;;;1.38;100.00;99752.22;5274939;28;20528;-78
2022/03/30 05:49:14;;;;;;;10.32;3.55;;;;;;;1.43;99.63;99755.56;5277647;28;20070;-77
2022/03/30 05:51:45;;;;;;;8.02;3.60;;;;;;;1.65;99.63;99754.44;5274502;28;20032;-78
2022/03/30 05:54:16;;;;;;;11.85;3.63;;;;;;;1.60;99.31;99752.78;5277037;28;20036;-78
2022/03/30 05:57:02;;;;;;;11.48;3.53;;;;;;;1.43;99.77;99755.56;5272726;28;20023;-78
2022/03/30 05:59:35;;;;;;;15.07;3.67;;;;;;;1.40;100.00;99750.47;5276139;28;20020;-78
2022/03/30 06:02:08;;;;;;;12.63;3.63;;;;;;;1.68;100.00;99745.81;5272364;28;20537;-78
2022/03/30 06:04:41;;;;;;;16.65;3.53;;;;;;;1.87;99.26;99746.41;5277494;28;20027;-78
2022/03/30 06:07:11;;;;;;;13.18;3.53;;;;;;;1.81;98.79;99740.50;5270210;28;20534;-78
2022/03/30 06:09:42;;;;;;;9.02;3.40;;;;;;;2.10;100.00;99743.47;5271696;28;20027;-78
2022/03/30 06:12:12;;;;;;;10.77;3.15;;;;;;;2.15;99.04;99742.53;5277184;28;20027;-78
2022/03/30 06:14:42;;;;;;;15.38;3.50;;;;;;;2.49;96.53;99741.13;5274251;28;20032;-78
2022/03/30 06:17:15;;;;;;;8.82;3.00;;;;;;;2.79;96.60;99742.31;5275885;28;20753;-78
2022/03/30 06:19:51;;;;;;;12.02;3.00;;;;;;;2.85;92.64;99742.22;5274476;28;20023;-78
2022/03/30 06:22:23;;;;;;;9.85;3.33;;;;;;;2.79;97.14;99744.88;5251184;28;20035;-78
2022/03/30 06:24:53;;;;;;;7.68;2.85;;;;;;;2.76;96.20;99742.38;5266692;28;20024;-78
2022/03/30 06:27:24;;;;;;;17.83;4.03;;;;;;;2.55;96.87;99740.16;5266355;28;20025;-78
2022/03/30 06:29:54;;;;;;;12.80;3.65;;;;;;;2.60;99.87;99743.50;5265343;28;20035;-78
2022/03/30 06:32:24;;;;;;;10.45;3.55;;;;;;;2.99;98.11;99735.09;5267470;28;20077;-78
2022/03/30 06:34:55;;;;;;;8.38;3.50;;;;;;;3.19;97.35;99738.97;5267882;28;20407;-78
2022/03/30 06:37:25;;;;;;;13.65;4.15;;;;;;;3.06;97.15;99734.91;5250913;28;20535;-78
2022/03/30 06:39:55;;;;;;;15.05;3.92;;;;;;;3.12;97.82;99734.81;5269326;28;20027;-78
2022/03/30 06:42:26;;;;;;;10.90;3.42;;;;;;;3.64;97.94;99731.13;5255594;28;20043;-78
2022/03/30 06:44:56;;;;;;;10.80;3.42;;;;;;;3.43;95.63;99729.88;5254700;28;20019;-78
2022/03/30 06:47:26;;;;;;;11.70;3.35;;;;;;;3.16;98.10;99725.28;5275427;28;20028;-78
2022/03/30 06:49:57;;;;;;;11.32;3.30;;;;;;;3.58;99.84;99724.41;5274186;28;20119;-79
2022/03/30 06:52:31;;;;;;;10.55;3.08;;;;;;;4.35;95.54;99729.50;5275097;28;20493;-79
2022/03/30 06:55:05;;;;;;;12.40;3.10;;;;;;;4.91;90.55;99724.59;5273698;28;20023;-79
2022/03/30 06:57:35;;;;;;;10.98;3.00;;;;;;;5.23;87.53;99721.97;5269405;28;20486;-79
2022/03/30 07:00:07;;;;;;;9.98;3.50;;;;;;;4.45;90.68;99724.06;5273021;28;20027;-79
2022/03/30 07:02:37;;;;;;;11.52;3.20;;;;;;;4.75;89.68;99727.59;5275730;28;20028;-78
2022/03/30 07:05:08;;;;;;;14.38;3.50;;;;;;;5.27;88.23;99718.41;5272055;28;20749;-78
2022/03/30 07:10:27;;;;;;;12.90;3.30;;;;;;;5.36;89.63;99720.72;5273485;28;20504;-79
2022/03/30 07:12:57;;;;;;;10.35;2.60;;;;;;;6.14;88.88;99711.47;5274005;28;20043;-79
2022/03/30 07:15:28;;;;;;;13.60;3.03;;;;;;;7.21;79.62;99706.03;5275358;28;20057;-79
2022/03/30 07:18:00;;;;;;;9.93;2.55;;;;;;;7.87;78.39;99709.56;5274648;28;20032;-79
2022/03/30 07:20:30;;;;;;;9.23;2.40;;;;;;;9.02;74.03;99701.34;5276772;28;20023;-80
2022/03/30 07:23:01;;;;;;;7.88;2.38;;;;;;;11.37;67.31;99690.69;5267354;28;20031;-80
2022/03/30 07:25:32;;;;;;;8.50;2.47;;;;;;;12.45;62.93;99683.81;5271555;28;20026;-80
2022/03/30 07:28:03;;;;;;;9.30;2.30;;;;;;;11.68;65.25;99682.91;5275246;28;20044;-80
2022/03/30 07:30:34;;;;;;;11.95;2.10;;;;;;;8.98;70.35;99686.75;5280512;28;20022;-80
2022/03/30 07:33:05;;;;;;;8.18;2.13;;;;;;;9.57;70.62;99684.94;5259853;28;20088;-80
2022/03/30 07:35:35;;;;;;;6.90;2.13;;;;;;;9.50;69.71;99678.31;5264434;28;20016;-80
2022/03/30 07:38:05;;;;;;;8.43;1.88;;;;;;;10.34;67.25;99680.34;5265185;28;20031;-81
2022/03/30 07:40:36;;;;;;;7.78;1.77;;;;;;;12.70;61.02;99670.94;5278977;28;20087;-81
2022/03/30 07:43:07;;;;;;;9.20;1.83;;;;;;;12.59;58.42;99678.59;5281284;28;20020;-81
2022/03/30 07:45:38;;;;;;;8.43;1.85;;;;;;;14.28;55.35;99671.47;5283647;28;20281;-81
2022/03/30 07:48:08;;;;;;;9.70;2.08;;;;;;;14.21;55.13;99662.31;5282887;28;20031;-80
2022/03/30 07:50:39;;;;;;;6.70;1.50;;;;;;;13.68;55.36;99675.38;5273005;28;20028;-80
2022/03/30 07:53:10;;;;;;;7.72;1.90;;;;;;;15.35;52.35;99668.53;5270926;28;20039;-80
2022/03/30 07:55:40;;;;;;;6.57;1.80;;;;;;;14.06;53.73;99678.22;5258791;28;20027;-80
2022/03/30 07:58:11;;;;;;;7.50;1.77;;;;;;;12.79;56.78;99681.75;5276706;28;20024;-80
2022/03/30 08:00:42;;;;;;;6.53;1.52;;;;;;;14.08;52.75;99668.44;5262494;28;20027;-80
2022/03/30 08:03:12;;;;;;;7.32;1.60;;;;;;;13.52;53.00;99681.66;5255590;28;20028;-80
2022/03/30 08:05:43;;;;;;;7.60;1.83;;;;;;;12.85;55.53;99685.78;5273151;28;20084;-80
2022/03/30 08:08:13;;;;;;;6.97;1.73;;;;;;;13.85;54.24;99671.66;5274256;28;20126;-80
2022/03/30 08:10:43;;;;;;;7.90;1.73;;;;;;;13.65;55.30;99672.94;5273496;28;20023;-81
2022/03/30 08:13:14;;;;;;;6.73;1.50;;;;;;;14.97;52.18;99656.28;5252916;28;20145;-80
2022/03/30 08:15:44;;;;;;;6.93;1.58;;;;;;;13.58;57.41;99662.91;5271987;28;20274;-80
2022/03/30 08:18:14;;;;;;;5.67;1.43;;;;;;;10.48;63.55;99682.31;5276896;28;20172;-80
2022/03/30 08:23:36;;;;;;;9.48;1.95;;;;;;;11.06;62.55;99674.03;5260337;28;20728;-80
2022/03/30 08:26:06;;;;;;;8.55;1.90;;;;;;;11.68;63.20;99669.81;5252315;28;20528;-79
2022/03/30 08:28:37;;;;;;;6.72;1.77;;;;;;;11.51;63.13;99669.00;5270773;28;20045;-79
2022/03/30 08:31:09;;;;;;;10.90;1.88;;;;;;;11.21;63.58;99674.09;5268174;28;20462;-79
2022/03/30 08:33:39;;;;;;;8.57;1.88;;;;;;;10.93;63.91;99670.38;5260861;28;20054;-79
2022/03/30 08:36:09;;;;;;;8.57;1.90;;;;;;;10.57;65.40;99672.25;5264776;28;20028;-79
2022/03/30 08:38:39;;;;;;;7.20;2.05;;;;;;;11.47;63.15;99676.16;5262761;28;20622;-79
2022/03/30 08:41:10;;;;;;;8.57;1.90;;;;;;;11.82;61.58;99680.38;5266320;28;20032;-79
2022/03/30 08:43:41;;;;;;;8.98;1.70;;;;;;;12.30;58.75;99682.03;5274899;28;20106;-79
2022/03/30 08:46:11;;;;;;;8.00;2.00;;;;;;;12.47;59.14;99677.50;5274026;28;20043;-80
2022/03/30 08:48:42;;;;;;;7.15;1.92;;;;;;;12.40;58.88;99670.09;5280389;28;20034;-79
2022/03/30 08:51:15;;;;;;;6.45;1.52;;;;;;;13.27;57.96;99665.72;5256789;28;20085;-79
2022/03/30 08:53:47;;;;;;;11.00;2.00;;;;;;;14.95;54.44;99659.03;5279416;28;20051;-79
2022/03/30 08:56:17;;;;;;;6.97;1.60;;;;;;;13.29;56.91;99666.47;5276188;28;20027;-79
2022/03/30 08:58:47;;;;;;;7.03;1.90;;;;;;;13.27;57.11;99669.19;5252294;28;20501;-79
2022/03/30 09:01:18;;;;;;;7.47;1.45;;;;;;;14.94;55.56;99661.75;5277558;28;20032;-79
2022/03/30 09:03:59;;;;;;;6.40;1.40;;;;;;;15.06;52.08;99650.41;5278936;28;20034;-79
2022/03/30 09:06:52;;;;;;;7.22;1.48;;;;;;;14.33;52.80;99648.41;5279315;28;20023;-79
2022/03/30 09:09:38;;;;;;;5.88;1.48;;;;;;;13.32;55.58;99653.16;5271222;28;20031;-79
2022/03/30 09:12:10;;;;;;;6.80;1.50;;;;;;;12.52;57.58;99666.78;5272520;28;20032;-79
2022/03/30 09:14:42;;;;;;;5.70;1.65;;;;;;;12.70;58.19;99655.22;5280762;28;20505;-79
2022/03/30 09:17:12;;;;;;;4.45;1.23;;;;;;;12.80;57.98;99651.97;5276132;28;20032;-79
2022/03/30 09:19:44;;;;;;;6.17;1.40;;;;;;;12.11;58.54;99656.03;5260960;28;20050;-79
2022/03/30 09:22:14;;;;;;;7.22;1.73;;;;;;;11.23;59.91;99659.16;5276355;28;20277;-79
2022/03/30 09:24:45;;;;;;;8.05;1.77;;;;;;;11.45;60.81;99654.47;5279008;28;20499;-79
2022/03/30 09:27:16;;;;;;;9.13;1.83;;;;;;;11.94;59.06;99653.53;5272043;28;20039;-79
2022/03/30 09:29:46;;;;;;;7.30;1.77;;;;;;;12.93;57.93;99647.72;5278619;28;20028;-79
2022/03/30 09:32:17;;;;;;;7.18;1.70;;;;;;;11.52;59.47;99650.63;5275193;28;20038;-79
2022/03/30 09:34:50;;;;;;;6.85;1.58;;;;;;;12.32;59.10;99649.56;5279352;28;20026;-79
2022/03/30 09:37:21;;;;;;;9.48;1.48;;;;;;;11.70;58.86;99649.66;5277668;28;20036;-79
2022/03/30 09:39:51;;;;;;;8.75;2.10;;;;;;;11.75;59.85;99652.03;5272517;28;20035;-79
2022/03/30 09:42:27;;;;;;;9.77;1.90;;;;;;;11.25;61.28;99652.06;5277012;28;20373;-79
2022/03/30 09:44:58;;;;;;;9.63;1.80;;;;;;;11.26;60.69;99652.94;5278355;28;20027;-79
2022/03/30 09:47:37;;;;;;;6.28;1.48;;;;;;;11.12;61.36;99645.78;5276168;28;20032;-78
2022/03/30 09:50:08;;;;;;;9.20;1.92;;;;;;;10.89;62.21;99647.09;5278447;28;20028;-79
2022/03/30 09:52:38;;;;;;;8.27;1.90;;;;;;;11.68;61.71;99641.03;5274977;28;20020;-79
2022/03/30 09:55:10;;;;;;;9.65;2.03;;;;;;;11.66;60.43;99636.81;5270608;28;20028;-79
2022/03/30 09:57:41;;;;;;;8.00;1.80;;;;;;;11.10;60.47;99636.38;5252845;28;20032;-79
2022/03/30 10:00:18;;;;;;;8.32;1.90;;;;;;;10.17;62.20;99638.56;5274150;28;20031;-79
2022/03/30 10:02:51;;;;;;;13.70;1.98;;;;;;;11.00;61.15;99634.31;5276596;28;20031;-79
2022/03/30 10:05:22;;;;;;;10.00;1.75;;;;;;;11.19;60.42;99628.88;5276435;28;20030;-79
2022/03/30 10:08:21;;;;;;;8.77;1.50;;;;;;;11.08;61.77;99615.50;5277096;28;20503;-79
2022/03/30 10:10:52;;;;;;;8.70;1.98;;;;;;;11.35;60.75;99619.28;5248086;28;20547;-79
2022/03/30 10:13:24;;;;;;;10.07;2.10;;;;;;;11.11;61.32;99615.34;5276637;28;20027;-79
2022/03/30 10:15:54;;;;;;;7.25;2.00;;;;;;;11.48;60.46;99606.38;5277114;28;20043;-79
2022/03/30 10:18:25;;;;;;;6.90;1.70;;;;;;;11.68;59.31;99611.38;5276737;28;20063;-79
2022/03/30 10:21:24;;;;;;;8.90;2.00;;;;;;;12.33;59.04;99611.97;5275822;28;20035;-79
2022/03/30 10:24:32;;;;;;;9.18;2.10;;;;;;;12.33;57.49;99606.72;5256667;28;20039;-79
2022/03/30 10:27:14;;;;;;;8.27;1.77;;;;;;;12.08;58.54;99601.22;5266650;28;20066;-79
2022/03/30 10:29:59;;;;;;;6.75;1.73;;;;;;;11.42;60.22;99601.50;5268959;28;20028;-79
2022/03/30 10:32:37;;;;;;;11.75;2.20;;;;;;;10.92;61.66;99602.50;5278423;28;20028;-79
2022/03/30 10:35:13;;;;;;;8.93;1.70;;;;;;;10.55;61.66;99592.25;5274401;28;20039;-79
2022/03/30 10:37:55;;;;;;;8.32;2.45;;;;;;;11.24;62.83;99590.25;5271743;28;20023;-79
2022/03/30 10:40:26;;;;;;;10.15;2.25;;;;;;;12.12;61.48;99587.00;5274528;28;20040;-79
2022/03/30 10:42:59;;;;;;;7.47;1.85;;;;;;;11.36;62.64;99579.13;5275418;28;20045;-79
2022/03/30 10:45:30;;;;;;;8.68;1.95;;;;;;;11.19;60.29;99583.56;5259399;28;20027;-79
2022/03/30 10:48:17;;;;;;;6.97;1.50;;;;;;;10.96;62.63;99575.25;5275573;28;20028;-79
2022/03/30 10:50:54;;;;;;;7.63;1.60;;;;;;;11.51;61.71;99569.56;5272180;28;20055;-79
2022/03/30 10:53:34;;;;;;;8.18;1.70;;;;;;;11.72;60.46;99564.03;5276755;28;20489;-79
2022/03/30 10:56:07;;;;;;;8.43;1.77;;;;;;;11.38;62.28;99558.94;5298476;22;20052;-76
2022/03/30 10:58:59;;;;;;;11.43;2.30;;;;;;;11.20;62.07;99557.34;5278005;28;20038;-75
2022/03/30 11:01:38;;;;;;;8.23;1.80;;;;;;;10.82;62.91;99552.47;5273541;28;20397;-76
2022/03/30 11:04:16;;;;;;;7.80;1.92;;;;;;;11.02;62.54;99554.03;5283303;28;20515;-76
2022/03/30 11:07:07;;;;;;;9.93;2.60;;;;;;;11.53;62.60;99550.25;5286024;28;20115;-76
2022/03/30 11:09:40;;;;;;;9.98;2.47;;;;;;;11.70;61.09;99544.94;5267628;28;20083;-76
2022/03/30 11:12:12;;;;;;;11.75;2.33;;;;;;;11.28;60.97;99552.53;5281739;28;20374;-78
2022/03/30 11:15:01;;;;;;;9.23;2.45;;;;;;;11.47;61.89;99553.19;5289411;28;20091;-78
2022/03/30 11:17:40;;;;;;;11.80;1.90;;;;;;;11.57;60.49;99554.41;5281341;28;20027;-78
2022/03/30 11:20:14;;;;;;;10.90;2.55;;;;;;;10.82;62.92;99549.03;5284614;28;20032;-75
2022/03/30 11:22:46;;;;;;;5.68;2.10;;;;;;;11.49;62.05;99546.13;5288689;28;20362;-75
2022/03/30 11:25:24;;;;;;;8.40;2.30;;;;;;;11.60;60.14;99535.94;5287075;28;20032;-78
2022/03/30 11:27:58;;;;;;;6.80;2.15;;;;;;;10.57;62.88;99540.75;5279641;28;20478;-75
2022/03/30 11:30:36;;;;;;;11.23;2.58;;;;;;;10.73;63.02;99536.44;5284191;28;20048;-76
2022/03/30 11:33:13;;;;;;;8.23;2.55;;;;;;;10.91;62.22;99535.44;5287816;28;20052;-77
2022/03/30 11:35:48;;;;;;;7.65;2.40;;;;;;;10.40;63.20;99532.97;5281854;28;20032;-77
2022/03/30 11:38:23;;;;;;;8.73;2.10;;;;;;;10.61;62.81;99532.69;5287084;28;20085;-77
2022/03/30 11:41:23;;;;;;;8.35;2.00;;;;;;;10.87;63.08;99523.47;5268138;28;20039;-76
2022/03/30 11:46:43;;;;;;;9.13;2.25;;;;;;;11.67;61.11;99512.88;5273953;28;20030;-77
2022/03/30 11:49:14;;;;;;;5.80;1.85;;;;;;;11.70;60.40;99510.06;5260955;28;20151;-78
2022/03/30 11:51:44;;;;;;;7.80;2.00;;;;;;;11.90;60.22;99510.63;5283243;28;20028;-76
2022/03/30 11:54:17;;;;;;;10.10;1.98;;;;;;;11.72;60.10;99511.69;5283228;28;20350;-77
2022/03/30 11:56:51;;;;;;;9.00;2.40;;;;;;;10.92;60.81;99526.69;5277118;28;20032;-76
2022/03/30 11:59:22;;;;;;;11.73;2.60;;;;;;;10.51;61.89;99514.97;5279648;28;20039;-78
2022/03/30 12:01:53;;;;;;;9.23;2.95;;;;;;;11.14;62.65;99520.22;5284148;28;20030;-76
2022/03/30 12:04:30;;;;;;;6.35;2.28;;;;;;;10.98;61.74;99510.66;5285747;28;20032;-74
2022/03/30 12:07:01;;;;;;;20.08;2.53;;;;;;;11.71;59.51;99504.75;5283294;28;20035;-78